Time;durP1;ratioP1;P1;durP2;ratioP2;P2;SDS_P1;SDS_P2;PMS_P1;PMS_P2;Temp;Humidity;BMP_temperature;BMP_pressure;BME280_temperature;BME280_humidity;BME280_pressure;Samples;Min_cycle;Max_cycle;Signal;HPM_P1;HPM_P2
2023/10/24 00:00:13;;;;;;;0.00;0.00;;;19.20;50.90;;;;;;5092380;28;20211;-46
2023/10/24 00:02:43;;;;;;;0.10;0.10;;;19.20;50.90;;;;;;5092239;28;20217;-47
2023/10/24 00:05:14;;;;;;;0.10;0.10;;;19.30;50.90;;;;;;5092323;28;20203;-44
2023/10/24 00:07:45;;;;;;;0.00;0.00;;;19.30;50.90;;;;;;5092627;28;20198;-44
2023/10/24 00:10:18;;;;;;;0.10;0.10;;;19.30;50.90;;;;;;5092567;28;20734;-45
2023/10/24 00:12:49;;;;;;;0.00;0.00;;;19.30;50.80;;;;;;5091844;28;20190;-46
2023/10/24 00:15:19;;;;;;;0.03;0.03;;;19.30;50.80;;;;;;5091769;28;20234;-44
2023/10/24 00:17:50;;;;;;;0.00;0.00;;;19.40;50.90;;;;;;5092018;28;20198;-46
2023/10/24 00:20:21;;;;;;;0.08;0.08;;;19.40;50.90;;;;;;5092396;28;20198;-46
2023/10/24 00:22:51;;;;;;;0.10;0.10;;;19.40;50.80;;;;;;5092051;28;20202;-46
2023/10/24 00:25:24;;;;;;;0.10;0.10;;;19.50;50.90;;;;;;5092077;28;20194;-44
2023/10/24 00:27:55;;;;;;;0.10;0.10;;;19.50;50.90;;;;;;5092312;28;20206;-45
2023/10/24 00:30:25;;;;;;;0.10;0.10;;;19.50;50.90;;;;;;5092121;28;20582;-46
2023/10/24 00:32:56;;;;;;;0.10;0.10;;;19.50;50.80;;;;;;5092114;28;20201;-45
2023/10/24 00:35:27;;;;;;;0.10;0.10;;;19.60;50.80;;;;;;5088363;28;20232;-44
2023/10/24 00:37:57;;;;;;;0.00;0.00;;;19.60;50.80;;;;;;5091639;28;20194;-46
2023/10/24 00:40:30;;;;;;;0.10;0.10;;;19.60;50.70;;;;;;5091798;28;20194;-47
2023/10/24 00:43:05;;;;;;;0.03;0.03;;;19.60;50.70;;;;;;5091653;28;20206;-47
2023/10/24 00:45:38;;;;;;;0.10;0.10;;;19.60;50.70;;;;;;5091740;28;20730;-44
2023/10/24 00:48:09;;;;;;;0.08;0.08;;;19.70;50.70;;;;;;5091685;28;20198;-45
2023/10/24 00:50:40;;;;;;;0.10;0.10;;;19.70;50.70;;;;;;5091830;28;20202;-46
2023/10/24 00:53:11;;;;;;;0.10;0.10;;;19.70;50.70;;;;;;5092171;28;20559;-47
2023/10/24 00:55:43;;;;;;;0.10;0.10;;;19.70;50.70;;;;;;5094131;28;20225;-45
2023/10/24 00:58:15;;;;;;;0.10;0.10;;;19.70;50.70;;;;;;5095850;28;20218;-47
2023/10/24 01:00:48;;;;;;;0.00;0.00;;;19.80;50.70;;;;;;5095637;28;20201;-49
2023/10/24 01:03:19;;;;;;;0.10;0.10;;;19.80;50.70;;;;;;5092848;28;20217;-47
2023/10/24 01:05:52;;;;;;;0.05;0.05;;;19.80;50.70;;;;;;5075974;28;20198;-44
2023/10/24 01:08:23;;;;;;;0.10;0.10;;;19.80;50.70;;;;;;5075501;28;20586;-46
2023/10/24 01:10:55;;;;;;;0.00;0.00;;;19.80;50.70;;;;;;5075757;28;20556;-44
2023/10/24 01:13:26;;;;;;;0.10;0.10;;;19.90;50.70;;;;;;5075631;28;20647;-44
2023/10/24 01:15:57;;;;;;;0.10;0.10;;;19.90;50.70;;;;;;5075310;28;20230;-49
2023/10/24 01:18:27;;;;;;;0.05;0.05;;;19.90;50.70;;;;;;5075307;28;20690;-47
2023/10/24 01:20:58;;;;;;;0.10;0.10;;;19.90;50.70;;;;;;5075262;28;20202;-44
2023/10/24 01:23:32;;;;;;;0.10;0.10;;;19.90;50.70;;;;;;5075223;28;20674;-47
2023/10/24 01:26:03;;;;;;;0.10;0.10;;;20.00;50.70;;;;;;5075087;28;20198;-48
2023/10/24 01:28:34;;;;;;;0.10;0.10;;;20.00;50.70;;;;;;5075003;28;20685;-46
2023/10/24 01:31:04;;;;;;;0.00;0.00;;;20.00;50.70;;;;;;5081167;28;20190;-44
2023/10/24 01:33:35;;;;;;;0.00;0.00;;;20.00;50.70;;;;;;5095152;28;20205;-45
2023/10/24 01:36:06;;;;;;;0.00;0.00;;;20.00;50.70;;;;;;5094960;28;20229;-47
2023/10/24 01:38:39;;;;;;;0.10;0.10;;;20.00;50.60;;;;;;5094730;28;20260;-47
2023/10/24 01:41:09;;;;;;;0.10;0.10;;;20.10;50.60;;;;;;5094858;28;20194;-47
2023/10/24 01:43:40;;;;;;;0.00;0.00;;;20.10;50.60;;;;;;5094805;28;20198;-45
2023/10/24 01:46:10;;;;;;;0.10;0.10;;;20.10;50.60;;;;;;5094895;28;20201;-47
2023/10/24 01:48:42;;;;;;;0.10;0.10;;;20.10;50.60;;;;;;5095088;28;20214;-44
2023/10/24 01:51:13;;;;;;;0.10;0.10;;;20.10;50.70;;;;;;5094893;28;20742;-46
2023/10/24 01:53:45;;;;;;;0.10;0.10;;;20.20;50.70;;;;;;5094738;28;20625;-46
2023/10/24 01:56:16;;;;;;;0.10;0.10;;;20.20;50.70;;;;;;5091847;28;20214;-45
2023/10/24 01:58:46;;;;;;;0.10;0.10;;;20.20;50.70;;;;;;5074366;28;20225;-45
2023/10/24 02:01:17;;;;;;;0.03;0.03;;;20.30;50.70;;;;;;5074606;28;20290;-45
2023/10/24 02:03:48;;;;;;;0.03;0.03;;;20.30;50.70;;;;;;5080965;28;20210;-47
2023/10/24 02:06:18;;;;;;;0.10;0.10;;;20.30;50.60;;;;;;5094697;28;20217;-47
2023/10/24 02:08:51;;;;;;;0.00;0.00;;;20.30;50.60;;;;;;5095132;28;20218;-47
2023/10/24 02:11:22;;;;;;;0.10;0.10;;;20.30;50.60;;;;;;5094402;28;20198;-45
2023/10/24 02:13:53;;;;;;;0.10;0.10;;;20.40;50.60;;;;;;5094360;28;20198;-47
2023/10/24 02:16:24;;;;;;;0.10;0.10;;;20.40;50.50;;;;;;5094179;28;20218;-48
2023/10/24 02:18:55;;;;;;;0.03;0.03;;;20.40;50.50;;;;;;5094158;28;20685;-44
2023/10/24 02:21:26;;;;;;;0.10;0.10;;;20.40;50.40;;;;;;5094358;28;20185;-48
2023/10/24 02:23:58;;;;;;;0.10;0.10;;;20.50;50.50;;;;;;5094438;28;20198;-47
2023/10/24 02:26:29;;;;;;;0.00;0.00;;;20.50;50.40;;;;;;5094210;28;20650;-45
2023/10/24 02:29:00;;;;;;;0.10;0.10;;;20.50;50.40;;;;;;5094358;28;20225;-45
2023/10/24 02:31:31;;;;;;;0.10;0.10;;;20.50;50.30;;;;;;5094153;28;20194;-48
2023/10/24 02:34:02;;;;;;;0.10;0.10;;;20.50;50.30;;;;;;5094192;28;20202;-47
2023/10/24 02:36:33;;;;;;;0.10;0.10;;;20.50;50.30;;;;;;5091964;28;20313;-47
2023/10/24 02:39:05;;;;;;;0.10;0.10;;;20.60;50.30;;;;;;5093505;28;20221;-45
2023/10/24 02:41:36;;;;;;;0.10;0.10;;;20.60;50.20;;;;;;5093586;28;20197;-45
2023/10/24 02:44:07;;;;;;;0.00;0.00;;;20.60;50.20;;;;;;5093573;28;20198;-45
2023/10/24 02:46:37;;;;;;;0.03;0.03;;;20.70;50.20;;;;;;5093827;28;20209;-47
2023/10/24 02:49:08;;;;;;;0.00;0.00;;;20.60;50.10;;;;;;5093492;28;20202;-45
2023/10/24 02:51:38;;;;;;;0.05;0.05;;;20.60;50.00;;;;;;5094026;28;20673;-44
2023/10/24 02:54:11;;;;;;;0.00;0.00;;;20.70;50.00;;;;;;5093979;28;20190;-48
2023/10/24 02:56:42;;;;;;;0.10;0.10;;;20.70;50.00;;;;;;5093724;28;20228;-44
2023/10/24 02:59:12;;;;;;;0.10;0.10;;;20.70;50.00;;;;;;5093518;28;20222;-46
2023/10/24 03:01:43;;;;;;;0.05;0.05;;;20.70;50.00;;;;;;5093761;28;20198;-45
2023/10/24 03:04:14;;;;;;;0.10;0.10;;;20.70;50.00;;;;;;5083336;28;20213;-47
2023/10/24 03:06:45;;;;;;;0.10;0.10;;;20.70;49.90;;;;;;5072691;28;20666;-46
2023/10/24 03:09:17;;;;;;;0.10;0.10;;;20.70;49.90;;;;;;5073258;28;20222;-45
2023/10/24 03:11:48;;;;;;;0.10;0.10;;;20.80;49.80;;;;;;5073065;28;20654;-46
2023/10/24 03:14:19;;;;;;;0.10;0.10;;;20.80;49.80;;;;;;5073013;28;20214;-46
2023/10/24 03:16:50;;;;;;;0.10;0.10;;;20.80;49.70;;;;;;5072191;28;20223;-47
2023/10/24 03:19:20;;;;;;;0.10;0.10;;;20.80;49.70;;;;;;5072383;28;20620;-43
2023/10/24 03:21:51;;;;;;;0.10;0.10;;;20.80;49.60;;;;;;5072604;28;20537;-47
2023/10/24 03:24:23;;;;;;;0.10;0.10;;;20.80;49.60;;;;;;5072613;28;20689;-46
2023/10/24 03:26:54;;;;;;;0.10;0.10;;;20.90;49.70;;;;;;5072596;28;20202;-47
2023/10/24 03:29:25;;;;;;;0.10;0.10;;;20.90;49.70;;;;;;5072521;28;20238;-45
2023/10/24 03:31:55;;;;;;;0.10;0.10;;;20.90;49.60;;;;;;5072792;28;20657;-47
2023/10/24 03:34:26;;;;;;;0.10;0.10;;;20.90;49.60;;;;;;5072602;28;20199;-46
2023/10/24 03:36:57;;;;;;;0.10;0.10;;;20.90;49.60;;;;;;5085856;28;20225;-45
2023/10/24 03:39:29;;;;;;;0.10;0.10;;;20.90;49.60;;;;;;5092707;28;20689;-44
2023/10/24 03:42:00;;;;;;;0.05;0.05;;;20.90;49.60;;;;;;5092556;28;20209;-45
2023/10/24 03:44:30;;;;;;;0.10;0.10;;;20.90;49.60;;;;;;5092819;28;20198;-46
2023/10/24 03:47:01;;;;;;;0.10;0.10;;;20.90;49.70;;;;;;5092751;28;20263;-47
2023/10/24 03:49:33;;;;;;;0.05;0.05;;;20.90;49.70;;;;;;5089100;28;20246;-46
2023/10/24 03:52:05;;;;;;;0.00;0.00;;;20.90;49.70;;;;;;5092678;28;20194;-46
2023/10/24 03:54:37;;;;;;;0.03;0.03;;;20.90;49.60;;;;;;5092654;28;20216;-47
2023/10/24 03:57:08;;;;;;;0.10;0.10;;;20.90;49.60;;;;;;5092409;28;20689;-46
2023/10/24 03:59:39;;;;;;;0.00;0.00;;;20.90;49.60;;;;;;5092450;28;20237;-44
2023/10/24 04:02:10;;;;;;;0.10;0.10;;;20.90;49.60;;;;;;5092475;28;20194;-45
2023/10/24 04:04:40;;;;;;;0.08;0.08;;;20.90;49.60;;;;;;5092439;28;20291;-46
2023/10/24 04:07:11;;;;;;;0.00;0.00;;;20.90;49.50;;;;;;5092087;28;20216;-45
2023/10/24 04:09:43;;;;;;;0.10;0.10;;;20.90;49.50;;;;;;5092664;28;20241;-47
2023/10/24 04:12:14;;;;;;;0.10;0.10;;;20.90;49.50;;;;;;5092258;28;20198;-44
2023/10/24 04:14:45;;;;;;;0.00;0.00;;;20.90;49.50;;;;;;5092298;28;20201;-44
2023/10/24 04:17:15;;;;;;;0.08;0.08;;;20.90;49.60;;;;;;5091850;28;20229;-46
2023/10/24 04:19:48;;;;;;;0.10;0.10;;;20.90;49.60;;;;;;5091565;28;20218;-46
2023/10/24 04:22:19;;;;;;;0.00;0.00;;;20.90;49.60;;;;;;5091894;28;20892;-46
2023/10/24 04:24:51;;;;;;;0.00;0.00;;;20.90;49.60;;;;;;5092205;28;20197;-46
2023/10/24 04:27:22;;;;;;;0.00;0.00;;;20.90;49.60;;;;;;5091828;28;20540;-44
2023/10/24 04:29:52;;;;;;;0.08;0.08;;;20.90;49.70;;;;;;5091862;28;20221;-47
2023/10/24 04:32:23;;;;;;;0.00;0.00;;;20.90;49.60;;;;;;5088385;28;20213;-47
2023/10/24 04:34:54;;;;;;;0.00;0.00;;;20.90;49.60;;;;;;5091734;28;20198;-46
2023/10/24 04:37:25;;;;;;;0.03;0.03;;;20.90;50.30;;;;;;5091751;28;20229;-46
2023/10/24 04:39:57;;;;;;;0.10;0.10;;;20.90;49.70;;;;;;5091703;28;20214;-44
2023/10/24 04:42:28;;;;;;;0.00;0.00;;;20.90;49.60;;;;;;5091826;28;20194;-44
2023/10/24 04:44:58;;;;;;;0.00;0.00;;;20.90;49.60;;;;;;5092318;28;20205;-45
2023/10/24 04:47:29;;;;;;;0.00;0.00;;;20.90;49.50;;;;;;5091942;28;20198;-45
2023/10/24 04:50:00;;;;;;;0.00;0.00;;;20.90;49.40;;;;;;5091786;28;20232;-46
2023/10/24 04:52:30;;;;;;;0.10;0.10;;;20.90;49.40;;;;;;5091445;28;20344;-45
2023/10/24 04:55:03;;;;;;;0.10;0.10;;;20.90;49.40;;;;;;5091675;28;20190;-47
2023/10/24 04:57:33;;;;;;;0.00;0.00;;;20.90;49.50;;;;;;5091303;28;20225;-45
2023/10/24 05:00:06;;;;;;;0.00;0.00;;;21.00;49.50;;;;;;5091542;28;20225;-47
2023/10/24 05:02:37;;;;;;;0.10;0.10;;;21.00;49.50;;;;;;5091492;28;20209;-45
2023/10/24 05:05:08;;;;;;;0.10;0.10;;;20.90;49.50;;;;;;5074074;28;20195;-45
2023/10/24 05:07:39;;;;;;;0.00;0.00;;;20.90;49.50;;;;;;5071204;28;20190;-46
2023/10/24 05:10:12;;;;;;;0.03;0.03;;;21.00;49.50;;;;;;5071530;28;20214;-43
2023/10/24 05:12:43;;;;;;;0.10;0.10;;;21.00;49.40;;;;;;5070798;28;20202;-45
2023/10/24 05:15:14;;;;;;;0.10;0.10;;;20.90;49.40;;;;;;5070638;28;20203;-45
2023/10/24 05:17:44;;;;;;;0.00;0.00;;;21.00;49.50;;;;;;5071193;28;20219;-44
2023/10/24 05:20:17;;;;;;;0.00;0.00;;;21.00;49.50;;;;;;5071200;28;20206;-46
2023/10/24 05:22:47;;;;;;;0.10;0.10;;;21.00;49.60;;;;;;5070976;28;20195;-45
2023/10/24 05:25:20;;;;;;;0.00;0.00;;;21.00;49.50;;;;;;5071278;28;20206;-46
2023/10/24 05:27:50;;;;;;;0.00;0.00;;;21.00;49.50;;;;;;5071044;28;20212;-43
2023/10/24 05:30:21;;;;;;;0.10;0.10;;;21.00;49.60;;;;;;5070952;28;20203;-47
2023/10/24 05:32:52;;;;;;;0.00;0.00;;;21.00;49.50;;;;;;5071088;28;20201;-46
2023/10/24 05:35:22;;;;;;;0.00;0.00;;;21.10;49.60;;;;;;5083112;28;20522;-47
2023/10/24 05:37:55;;;;;;;0.10;0.10;;;21.10;49.60;;;;;;5090751;28;20226;-46
2023/10/24 05:40:28;;;;;;;0.00;0.00;;;21.10;49.50;;;;;;5093033;28;20672;-47
2023/10/24 05:42:59;;;;;;;0.10;0.10;;;21.10;49.50;;;;;;5093937;28;20531;-47
2023/10/24 05:45:29;;;;;;;0.10;0.10;;;21.20;49.60;;;;;;5090952;28;20456;-47
2023/10/24 05:48:00;;;;;;;0.00;0.00;;;21.20;49.60;;;;;;5094395;28;20201;-47
2023/10/24 05:50:31;;;;;;;0.00;0.00;;;21.20;50.20;;;;;;5094698;28;20212;-47
2023/10/24 05:53:02;;;;;;;0.10;0.10;;;21.20;49.60;;;;;;5094814;28;20190;-46
2023/10/24 05:55:35;;;;;;;0.10;0.10;;;21.20;49.60;;;;;;5094780;28;20198;-45
2023/10/24 05:58:06;;;;;;;0.10;0.10;;;21.30;49.60;;;;;;5094027;28;20197;-47
2023/10/24 06:00:37;;;;;;;0.00;0.00;;;21.30;49.60;;;;;;5094288;28;20205;-45
2023/10/24 06:03:07;;;;;;;0.00;0.00;;;21.30;49.50;;;;;;5094166;28;20206;-45
2023/10/24 06:05:38;;;;;;;0.05;0.05;;;21.30;49.50;;;;;;5094134;28;20194;-51
2023/10/24 06:08:09;;;;;;;0.08;0.08;;;21.30;49.50;;;;;;5094490;28;20203;-49
2023/10/24 06:10:42;;;;;;;0.10;0.10;;;21.30;49.40;;;;;;5094738;28;20205;-50
2023/10/24 06:13:13;;;;;;;0.00;0.00;;;21.30;49.10;;;;;;5094231;28;20205;-47
2023/10/24 06:15:43;;;;;;;0.00;0.00;;;21.30;49.40;;;;;;5094448;28;20549;-45
2023/10/24 06:18:14;;;;;;;0.00;0.00;;;21.30;48.80;;;;;;5094320;28;20579;-47
2023/10/24 06:20:45;;;;;;;0.00;0.00;;;21.30;48.80;;;;;;5094638;28;20646;-45
2023/10/24 06:23:15;;;;;;;0.10;0.10;;;21.40;48.80;;;;;;5094425;28;20676;-46
2023/10/24 06:25:48;;;;;;;0.00;0.00;;;21.40;48.90;;;;;;5094146;28;20210;-44
2023/10/24 06:28:18;;;;;;;0.10;0.10;;;21.40;48.80;;;;;;5093624;28;20716;-47
2023/10/24 06:30:49;;;;;;;0.10;0.10;;;21.40;48.80;;;;;;5094305;28;20197;-45
2023/10/24 06:33:20;;;;;;;0.00;0.00;;;21.40;48.90;;;;;;5094265;28;20213;-48
2023/10/24 06:35:50;;;;;;;0.00;0.00;;;21.40;48.90;;;;;;5094258;28;20194;-46
2023/10/24 06:38:21;;;;;;;0.10;0.10;;;21.40;48.90;;;;;;5090324;28;20225;-48
2023/10/24 06:40:55;;;;;;;0.10;0.10;;;21.40;48.90;;;;;;5094000;28;20287;-45
2023/10/24 06:43:27;;;;;;;0.00;0.00;;;21.50;49.00;;;;;;5093368;28;20194;-47
2023/10/24 06:45:58;;;;;;;0.00;0.00;;;21.50;49.00;;;;;;5093676;28;20190;-46
2023/10/24 06:48:30;;;;;;;0.10;0.10;;;21.40;48.90;;;;;;5093291;28;20214;-47
2023/10/24 06:51:01;;;;;;;0.10;0.10;;;21.50;49.00;;;;;;5092699;28;20570;-45
2023/10/24 06:53:32;;;;;;;0.00;0.00;;;21.40;48.90;;;;;;5093391;28;20201;-45
2023/10/24 06:56:05;;;;;;;0.00;0.00;;;21.40;48.90;;;;;;5093550;28;20671;-45
2023/10/24 06:58:36;;;;;;;0.00;0.00;;;21.40;48.90;;;;;;5093049;28;20218;-45
2023/10/24 07:01:07;;;;;;;0.00;0.00;;;21.40;48.90;;;;;;5093697;28;20194;-45
2023/10/24 07:03:38;;;;;;;0.00;0.00;;;21.50;48.90;;;;;;5088132;28;20210;-46
2023/10/24 07:06:10;;;;;;;0.00;0.00;;;21.50;48.80;;;;;;5073042;28;20202;-45
2023/10/24 07:08:42;;;;;;;0.00;0.00;;;21.50;48.80;;;;;;5072826;28;20651;-46
2023/10/24 07:11:14;;;;;;;0.00;0.00;;;21.50;48.80;;;;;;5073496;28;20195;-46
2023/10/24 07:13:45;;;;;;;0.08;0.08;;;21.50;48.80;;;;;;5072551;28;20674;-47
2023/10/24 07:16:19;;;;;;;0.00;0.00;;;21.50;48.90;;;;;;5072875;28;20568;-46
2023/10/24 07:18:52;;;;;;;0.00;0.00;;;21.50;48.90;;;;;;5072826;28;20223;-47
2023/10/24 07:21:23;;;;;;;0.00;0.00;;;21.50;48.90;;;;;;5072937;28;20195;-47
2023/10/24 07:23:54;;;;;;;0.10;0.10;;;21.50;48.80;;;;;;5072890;28;20194;-43
2023/10/24 07:26:27;;;;;;;0.00;0.00;;;21.50;48.90;;;;;;5072327;28;20203;-46
2023/10/24 07:28:57;;;;;;;0.10;0.10;;;21.40;48.80;;;;;;5084934;28;20225;-44
2023/10/24 07:31:28;;;;;;;0.10;0.10;;;21.50;48.80;;;;;;5092917;28;20194;-46
2023/10/24 07:33:59;;;;;;;0.00;0.00;;;21.40;48.80;;;;;;5084891;28;20277;-48
2023/10/24 07:36:31;;;;;;;0.10;0.10;;;21.40;48.70;;;;;;5072425;28;20191;-46
2023/10/24 07:39:02;;;;;;;0.00;0.00;;;21.50;48.80;;;;;;5090987;28;20656;-46
2023/10/24 07:41:34;;;;;;;0.00;0.00;;;21.40;48.80;;;;;;5092723;28;20196;-46
2023/10/24 07:44:05;;;;;;;0.08;0.08;;;21.50;48.80;;;;;;5092427;28;20206;-47
2023/10/24 07:46:36;;;;;;;0.10;0.10;;;21.50;48.80;;;;;;5092622;28;20210;-46
2023/10/24 07:49:06;;;;;;;0.00;0.00;;;21.40;48.80;;;;;;5092485;28;20213;-46
2023/10/24 07:51:37;;;;;;;0.10;0.10;;;21.50;48.90;;;;;;5092457;28;20202;-46
2023/10/24 07:54:08;;;;;;;0.05;0.05;;;21.40;48.80;;;;;;5089102;28;20191;-45
2023/10/24 07:56:41;;;;;;;0.00;0.00;;;21.40;48.80;;;;;;5091891;28;20218;-46
2023/10/24 07:59:11;;;;;;;0.00;0.00;;;21.40;48.80;;;;;;5092053;28;20705;-46
2023/10/24 08:01:42;;;;;;;0.00;0.00;;;21.40;48.80;;;;;;5092253;28;20190;-45
2023/10/24 08:04:13;;;;;;;0.00;0.00;;;21.40;48.80;;;;;;5091724;28;20206;-47
2023/10/24 08:06:43;;;;;;;0.10;0.10;;;21.40;48.80;;;;;;5092364;28;20205;-47
2023/10/24 08:09:14;;;;;;;0.10;0.10;;;21.40;48.80;;;;;;5092582;28;20218;-44
2023/10/24 08:11:47;;;;;;;0.00;0.00;;;21.40;48.80;;;;;;5091920;28;20189;-48
2023/10/24 08:14:17;;;;;;;0.00;0.00;;;21.40;48.80;;;;;;5092090;28;20205;-45
2023/10/24 08:16:48;;;;;;;0.00;0.00;;;21.40;48.80;;;;;;5091829;28;20221;-45
2023/10/24 08:19:19;;;;;;;0.00;0.00;;;21.30;48.70;;;;;;5091913;28;20217;-47
2023/10/24 08:21:49;;;;;;;0.10;0.10;;;21.30;48.70;;;;;;5092096;28;20197;-43
2023/10/24 08:24:21;;;;;;;0.10;0.10;;;21.30;48.70;;;;;;5092125;28;20198;-44
2023/10/24 08:26:53;;;;;;;0.10;0.10;;;21.30;48.70;;;;;;5091335;28;20198;-47
2023/10/24 08:29:24;;;;;;;0.00;0.00;;;21.30;48.80;;;;;;5088395;28;20685;-46
2023/10/24 08:31:54;;;;;;;0.10;0.10;;;21.30;48.80;;;;;;5091838;28;20193;-47
2023/10/24 08:34:25;;;;;;;0.00;0.00;;;21.30;48.80;;;;;;5091862;28;20570;-46
2023/10/24 08:36:56;;;;;;;0.10;0.10;;;21.30;48.80;;;;;;5091651;28;20308;-45
2023/10/24 08:39:26;;;;;;;0.00;0.00;;;21.20;48.80;;;;;;5091556;28;20210;-44
2023/10/24 08:42:00;;;;;;;0.00;0.00;;;21.20;48.80;;;;;;5090957;28;20198;-45
2023/10/24 08:44:31;;;;;;;0.00;0.00;;;21.20;48.90;;;;;;5091666;28;20219;-44
2023/10/24 08:47:02;;;;;;;0.00;0.00;;;21.20;48.90;;;;;;5091480;28;20654;-46
2023/10/24 08:49:34;;;;;;;0.00;0.00;;;21.20;49.40;;;;;;5091668;28;20259;-47
2023/10/24 08:52:06;;;;;;;0.05;0.05;;;21.20;49.40;;;;;;5091942;28;20556;-45
2023/10/24 08:54:36;;;;;;;0.00;0.00;;;21.20;48.80;;;;;;5091519;28;20194;-50
2023/10/24 08:57:09;;;;;;;0.00;0.00;;;21.10;48.80;;;;;;5091093;28;20682;-47
2023/10/24 08:59:43;;;;;;;0.00;0.00;;;21.10;48.80;;;;;;5091616;28;20225;-45
2023/10/24 09:02:15;;;;;;;0.10;0.10;;;21.10;48.80;;;;;;5091630;28;20198;-46
2023/10/24 09:04:45;;;;;;;0.00;0.00;;;21.10;48.80;;;;;;5077263;28;20571;-47
2023/10/24 09:07:16;;;;;;;0.05;0.05;;;21.10;48.80;;;;;;5071258;28;20658;-47
2023/10/24 09:09:47;;;;;;;0.00;0.00;;;21.00;48.70;;;;;;5071669;28;20214;-46
2023/10/24 09:12:19;;;;;;;0.00;0.00;;;21.00;48.80;;;;;;5070412;28;20560;-47
2023/10/24 09:14:50;;;;;;;0.00;0.00;;;21.00;48.80;;;;;;5072727;28;20205;-47
2023/10/24 09:17:21;;;;;;;0.00;0.00;;;21.00;48.80;;;;;;5075223;28;20214;-47
2023/10/24 09:19:52;;;;;;;0.00;0.00;;;21.00;48.80;;;;;;5074862;28;20221;-45
2023/10/24 09:22:22;;;;;;;0.00;0.00;;;21.00;48.80;;;;;;5075398;28;20203;-47
2023/10/24 09:24:55;;;;;;;0.00;0.00;;;21.00;48.90;;;;;;5075154;28;20666;-48
2023/10/24 09:27:28;;;;;;;0.10;0.10;;;21.00;48.90;;;;;;5081191;28;20227;-44
2023/10/24 09:29:59;;;;;;;0.00;0.00;;;21.00;48.90;;;;;;5095025;28;20681;-47
2023/10/24 09:32:30;;;;;;;0.00;0.00;;;20.90;48.90;;;;;;5095215;28;20209;-47
2023/10/24 09:35:07;;;;;;;0.00;0.00;;;20.90;48.90;;;;;;5078225;28;20194;-47
2023/10/24 09:37:40;;;;;;;0.00;0.00;;;20.90;48.90;;;;;;5074431;28;20233;-45
2023/10/24 09:40:11;;;;;;;0.03;0.03;;;20.90;49.40;;;;;;5081264;28;20217;-46
2023/10/24 09:42:48;;;;;;;0.00;0.00;;;20.90;48.90;;;;;;5074346;28;20206;-46
2023/10/24 09:45:21;;;;;;;0.00;0.00;;;20.90;48.90;;;;;;5073832;28;20198;-46
2023/10/24 09:47:53;;;;;;;0.00;0.00;;;20.90;48.90;;;;;;5073064;28;20202;-42
2023/10/24 09:50:24;;;;;;;0.10;0.10;;;20.90;48.90;;;;;;5074372;28;20207;-44
2023/10/24 09:52:55;;;;;;;0.05;0.05;;;20.80;48.90;;;;;;5074423;28;20194;-44
2023/10/24 09:55:27;;;;;;;0.00;0.00;;;20.80;48.90;;;;;;5074417;28;20199;-47
2023/10/24 09:58:00;;;;;;;0.00;0.00;;;20.80;48.90;;;;;;5074617;28;20218;-45
2023/10/24 10:00:32;;;;;;;0.10;0.10;;;20.80;48.90;;;;;;5074567;28;20585;-46
2023/10/24 10:03:03;;;;;;;0.10;0.10;;;20.80;48.90;;;;;;5074375;28;20569;-44
2023/10/24 10:05:34;;;;;;;0.00;0.00;;;20.80;48.90;;;;;;5076783;28;20194;-45
2023/10/24 10:08:07;;;;;;;0.10;0.10;;;20.70;48.90;;;;;;5073540;28;20554;-46
2023/10/24 10:10:40;;;;;;;0.00;0.00;;;20.70;48.90;;;;;;5089345;28;20191;-49
2023/10/24 10:13:17;;;;;;;0.00;0.00;;;20.70;48.90;;;;;;5114307;28;20200;-46
2023/10/24 10:16:08;;;;;;;0.00;0.00;;;20.70;48.90;;;;;;5113595;28;20224;-45
2023/10/24 10:19:10;;;;;;;0.00;0.00;;;20.70;49.00;;;;;;5108402;28;20221;-44
2023/10/24 10:21:54;;;;;;;0.00;0.00;;;20.70;49.00;;;;;;5080671;28;20557;-46
2023/10/24 10:25:04;;;;;;;0.10;0.10;;;20.70;48.90;;;;;;5093258;28;20190;-44
2023/10/24 10:27:45;;;;;;;0.00;0.00;;;20.70;49.00;;;;;;5093864;28;20205;-46
2023/10/24 10:30:26;;;;;;;0.10;0.10;;;20.70;48.90;;;;;;5093289;28;20372;-45
2023/10/24 10:33:06;;;;;;;0.08;0.08;;;20.70;49.10;;;;;;5089949;28;20195;-43
2023/10/24 10:35:52;;;;;;;0.00;0.00;;;20.60;49.00;;;;;;5073539;28;20203;-46
2023/10/24 10:38:43;;;;;;;0.00;0.00;;;20.60;49.00;;;;;;5090809;28;20222;-49
2023/10/24 10:41:42;;;;;;;0.00;0.00;;;20.60;49.10;;;;;;5089275;28;20239;-46
2023/10/24 10:44:39;;;;;;;0.00;0.00;;;20.60;49.10;;;;;;5093717;28;20646;-47
2023/10/24 10:47:14;;;;;;;0.00;0.00;;;20.50;49.00;;;;;;5081060;28;20201;-47
2023/10/24 10:49:51;;;;;;;0.00;0.00;;;20.50;49.10;;;;;;5092434;28;20247;-46
2023/10/24 10:52:41;;;;;;;0.00;0.00;;;20.50;49.20;;;;;;5093254;28;20193;-47
2023/10/24 10:55:38;;;;;;;0.08;0.08;;;20.50;49.20;;;;;;5093050;28;20239;-46
2023/10/24 10:58:25;;;;;;;0.00;0.00;;;20.50;49.20;;;;;;5090876;28;20234;-46
2023/10/24 11:01:05;;;;;;;0.00;0.00;;;20.50;49.10;;;;;;5091980;28;20262;-44
2023/10/24 11:03:49;;;;;;;0.00;0.00;;;20.50;49.10;;;;;;5092275;28;20198;-45
2023/10/24 11:06:20;;;;;;;0.10;0.10;;;20.50;49.20;;;;;;5093032;28;20187;-46
2023/10/24 11:09:08;;;;;;;0.00;0.00;;;20.50;49.10;;;;;;5083079;28;20222;-48
2023/10/24 11:11:39;;;;;;;0.00;0.00;;;20.50;49.10;;;;;;5079115;28;20271;-46
2023/10/24 11:14:20;;;;;;;0.10;0.10;;;20.40;49.20;;;;;;5092434;28;20194;-46
2023/10/24 11:16:53;;;;;;;0.00;0.00;;;20.40;49.10;;;;;;5092429;28;20189;-47
2023/10/24 11:19:26;;;;;;;0.00;0.00;;;20.40;49.10;;;;;;5093013;28;20237;-47
2023/10/24 11:21:57;;;;;;;0.10;0.10;;;20.40;49.10;;;;;;5092140;28;20591;-47
2023/10/24 11:24:29;;;;;;;0.00;0.00;;;20.40;49.10;;;;;;5093258;28;20663;-46
2023/10/24 11:27:04;;;;;;;0.10;0.10;;;20.40;49.10;;;;;;5087587;28;20310;-46
2023/10/24 11:29:36;;;;;;;0.08;0.08;;;20.40;49.10;;;;;;5093105;28;20210;-47
2023/10/24 11:32:07;;;;;;;0.00;0.00;;;20.40;49.20;;;;;;5092966;28;20277;-46
2023/10/24 11:34:39;;;;;;;0.00;0.00;;;20.30;49.10;;;;;;5092054;28;20699;-46
2023/10/24 11:37:12;;;;;;;0.00;0.00;;;20.30;49.20;;;;;;5091880;28;20194;-44
2023/10/24 11:39:45;;;;;;;0.00;0.00;;;20.30;49.20;;;;;;5092344;28;20229;-45
2023/10/24 11:42:16;;;;;;;0.00;0.00;;;20.30;49.20;;;;;;5092679;28;20198;-46
2023/10/24 11:44:47;;;;;;;0.00;0.00;;;20.30;49.20;;;;;;5092928;28;20225;-48
2023/10/24 11:47:18;;;;;;;0.10;0.10;;;20.30;49.20;;;;;;5092801;28;20202;-45
2023/10/24 11:49:51;;;;;;;0.00;0.00;;;20.30;49.20;;;;;;5092552;28;20639;-44
2023/10/24 11:52:22;;;;;;;0.08;0.08;;;20.30;49.10;;;;;;5092542;28;20209;-46
2023/10/24 11:54:53;;;;;;;0.05;0.05;;;20.30;49.10;;;;;;5092318;28;20194;-44
2023/10/24 11:57:25;;;;;;;0.00;0.00;;;20.30;49.10;;;;;;5092408;28;20233;-45
2023/10/24 11:59:56;;;;;;;0.00;0.00;;;20.30;49.10;;;;;;5092288;28;20234;-45
2023/10/24 12:02:27;;;;;;;0.05;0.05;;;20.30;49.10;;;;;;5089081;28;20229;-45
2023/10/24 12:05:00;;;;;;;0.00;0.00;;;20.30;49.10;;;;;;5092378;28;20203;-45
2023/10/24 12:07:30;;;;;;;0.00;0.00;;;20.20;49.10;;;;;;5092162;28;20194;-45
2023/10/24 12:10:12;;;;;;;0.10;0.10;;;20.20;49.10;;;;;;5092230;28;20228;-46
2023/10/24 12:12:45;;;;;;;0.05;0.05;;;20.20;49.10;;;;;;5092285;28;20216;-47
2023/10/24 12:15:18;;;;;;;0.00;0.00;;;20.20;49.10;;;;;;5092500;28;20588;-45
2023/10/24 12:17:50;;;;;;;0.00;0.00;;;20.20;49.10;;;;;;5092168;28;20190;-45
2023/10/24 12:20:22;;;;;;;0.00;0.00;;;20.20;49.20;;;;;;5092178;28;20194;-45
2023/10/24 12:22:53;;;;;;;0.00;0.00;;;20.20;49.20;;;;;;5092228;28;20190;-45
2023/10/24 12:25:24;;;;;;;0.00;0.00;;;20.20;49.20;;;;;;5092375;28;20197;-46
2023/10/24 12:27:54;;;;;;;0.08;0.08;;;20.20;49.20;;;;;;5092076;28;20190;-45
2023/10/24 12:30:25;;;;;;;0.00;0.00;;;20.10;49.10;;;;;;5092034;28;20198;-46
2023/10/24 12:32:57;;;;;;;0.00;0.00;;;20.10;49.10;;;;;;5091849;28;20201;-45
2023/10/24 12:35:30;;;;;;;0.00;0.00;;;20.10;49.20;;;;;;5090519;28;20201;-46
2023/10/24 12:38:00;;;;;;;0.10;0.10;;;20.10;49.10;;;;;;5089899;28;20201;-45
2023/10/24 12:40:31;;;;;;;0.00;0.00;;;20.10;49.10;;;;;;5091928;28;20194;-46
2023/10/24 12:43:02;;;;;;;0.10;0.10;;;20.10;49.10;;;;;;5091589;28;20201;-46
2023/10/24 12:45:32;;;;;;;0.00;0.00;;;20.10;49.10;;;;;;5091859;28;20198;-46
2023/10/24 12:48:07;;;;;;;0.00;0.00;;;20.10;49.10;;;;;;5092113;28;20569;-45
2023/10/24 12:50:40;;;;;;;0.10;0.10;;;20.10;49.10;;;;;;5091221;28;20193;-46
2023/10/24 12:53:11;;;;;;;0.00;0.00;;;20.10;49.10;;;;;;5092006;28;20194;-46
2023/10/24 12:55:43;;;;;;;0.00;0.00;;;20.00;49.10;;;;;;5092061;28;20617;-49
2023/10/24 12:58:14;;;;;;;0.00;0.00;;;20.00;49.10;;;;;;5091464;28;20593;-46
2023/10/24 13:00:45;;;;;;;0.00;0.00;;;20.00;49.20;;;;;;5091686;28;20186;-46
2023/10/24 13:03:16;;;;;;;0.00;0.00;;;20.00;49.20;;;;;;5089576;28;20622;-45
2023/10/24 13:05:48;;;;;;;0.10;0.10;;;20.00;49.20;;;;;;5071772;28;20565;-44
2023/10/24 13:08:19;;;;;;;0.10;0.10;;;20.00;49.20;;;;;;5071541;28;20218;-47
2023/10/24 13:10:50;;;;;;;0.08;0.08;;;20.00;49.20;;;;;;5072070;28;20191;-46
2023/10/24 13:13:20;;;;;;;0.00;0.00;;;20.00;49.20;;;;;;5071301;28;20198;-45